Portada
METAR-TAF:

METAR-TAF

Aeroports :

Kota Kinabalu, Malàisia

latitud: 05-56N, longitud: 116-03E, altitud: 3 m

Observació

L'informe es va fer fa 44 minuts, a les 21:30 UTC
Vent 4 kt del Est
Temperatura 26°C
Humitat 89%
Pressió 1009 hPa
Visibilitat 10 km o més
Escasses núvols a una alçada de 1500 ft

METAR: WBKK 032130Z 10004KT 9999 FEW015 26/24 Q1009 NOSIG

Hora: 06:14 (22:14 UTC)

Pronòstic

L'informe es va fer fa 5 hores i 14 minuts, a les 17:00 UTC
Pronòstic vàlid del 03 a les 18 UTC al 04 a les 18 UTC
Vent 5 kt del Est/Sud-Est
Visibilitat 10 km o més
Escasses núvols a una alçada de 1400 ft
Evolucionant progressivament
l' 04 a les 01 UTC al 04 a les 03 UTC
Vent 8 kt del Nord/Nord-Oest

TAF: WBKK 031700Z 0318/0418 12005KT 9999 FEW014 BECMG 0401/0403 33008KT

Observacions i pronòstics meteorològics de més de 4000 aeroports (METAR i TAF).

Les estacions disponibles són els punts grocs i vermells al mapa.

Posi el ratolí al punt desitjat per veure el nom de l'estació.

Feu clic per veure les observacions i els pronòstics meteorològics.

Per canviar el mapa: feu clic els botons verds amb una creu de color negre per apropar; al botó verd amb un guió per allunyar la imatge; o en les fletxes verdes per a mapes adjacents.


METAR-TAF: